Four Corners Regional Airport

Airport
ICAO code: 
KFMN
Summary
ICAO Region: 
NAM
Territory: 
Location: 
Farmington, New Mexico,
Elevation: 
5506 ft
Coordinates: 
Aerial View: 
36° 44' 27.999" N, 108° 13' 46.999" W
Airport RE: 
Hot and High Operations
Metar
Observation
KFMN 040653Z AUTO 08007KT 10SM CLR 01/M07 A3023 RMK AO2 SLP234 T00061067 401391050
Station
Farmington, Four Corners Regional Airport
Date/Time
2021-12-04 06:53:00
Wind direction
80°
Wind speed
07 kts
Lowest cloud amount
n/a
Temperature
0.6°C
Dew point
-6.7°C
Humidity
58%
Weather condition
n/a

Description

Four Corners Regional Airport is a public airport located 2 km northwest of the central business district of Farmington, a city in San Juan County, New Mexico.

Climatology

A semi-arid steppe climate (Köppen climate classification BSk), with generally cold, dry winters and hot summers. Late spring and early summer is on average the wettest period of the year.

Runways

Designator Length Width Surface Rops
5/23 1981 46 ASP Yes/Yes
7/25 2043 30 ASP Yes/Yes
Airport map: 
Aerial View: 

SKYbrary Partners:

Safety knowledge contributed by: